createdAt,value
2023-06-19T00:00:18.438Z,53.75
2023-06-19T00:02:49.707Z,53.34
2023-06-19T00:05:19.296Z,53.11
2023-06-19T00:07:48.094Z,52.40
2023-06-19T00:10:17.685Z,52.53
2023-06-19T00:12:47.722Z,51.94
2023-06-19T00:15:17.150Z,51.46
2023-06-19T00:17:47.783Z,51.58
2023-06-19T00:20:17.330Z,51.39
2023-06-19T00:22:53.292Z,53.06
2023-06-19T00:25:22.906Z,53.56
2023-06-19T00:27:51.602Z,54.11
2023-06-19T00:30:21.068Z,52.81
2023-06-19T00:32:55.161Z,52.14
2023-06-19T00:35:26.097Z,51.32
2023-06-19T00:37:56.085Z,51.69
2023-06-19T00:40:35.586Z,50.96
2023-06-19T00:43:05.910Z,51.06
2023-06-19T00:45:35.368Z,50.76
2023-06-19T00:48:06.266Z,51.30
2023-06-19T00:50:35.840Z,51.23
2023-06-19T00:53:06.332Z,51.34
2023-06-19T00:55:36.772Z,51.68
2023-06-19T00:58:06.215Z,50.54
2023-06-19T01:00:35.715Z,49.85
2023-06-19T01:03:06.126Z,51.41
2023-06-19T01:05:36.306Z,51.60
2023-06-19T01:08:28.626Z,51.90
2023-06-19T01:11:06.784Z,51.10
2023-06-19T01:14:14.780Z,50.68
2023-06-19T01:16:46.600Z,49.71
2023-06-19T01:19:22.501Z,49.77
2023-06-19T01:21:53.790Z,49.01
2023-06-19T01:24:27.330Z,49.23
2023-06-19T01:26:56.856Z,49.32
2023-06-19T01:29:27.048Z,48.64
2023-06-19T01:32:17.649Z,48.86
2023-06-19T01:34:50.583Z,48.70
2023-06-19T01:37:20.221Z,48.59
2023-06-19T01:39:51.492Z,49.05
2023-06-19T01:42:20.584Z,48.99
2023-06-19T01:44:50.358Z,48.85
2023-06-19T01:47:24.034Z,49.58
2023-06-19T01:49:53.416Z,50.58
2023-06-19T01:52:22.994Z,50.74
2023-06-19T01:54:52.836Z,50.56
2023-06-19T01:57:24.081Z,50.68
2023-06-19T01:59:52.601Z,50.60
2023-06-19T02:02:25.298Z,50.36
2023-06-19T02:04:57.898Z,49.28
2023-06-19T02:07:27.613Z,49.57
2023-06-19T02:09:57.121Z,49.80
2023-06-19T02:12:26.171Z,49.92
2023-06-19T02:14:55.556Z,49.71
2023-06-19T02:17:26.163Z,49.67
2023-06-19T02:19:55.727Z,49.67
2023-06-19T02:22:28.127Z,49.66
2023-06-19T02:24:58.768Z,48.41
2023-06-19T02:27:27.673Z,48.72
2023-06-19T02:29:56.341Z,48.60
2023-06-19T02:32:26.003Z,48.03
2023-06-19T02:34:55.322Z,48.47
2023-06-19T02:37:24.397Z,48.84
2023-06-19T02:39:53.861Z,49.12
2023-06-19T02:42:22.338Z,47.36
2023-06-19T02:44:51.034Z,48.66
2023-06-19T02:47:20.100Z,49.10
2023-06-19T02:49:48.944Z,48.38
2023-06-19T02:52:18.045Z,47.51
2023-06-19T02:54:47.290Z,47.99
2023-06-19T02:57:16.297Z,48.25
2023-06-19T02:59:47.452Z,48.87
2023-06-19T03:02:17.769Z,48.65
2023-06-19T03:04:47.180Z,46.91
2023-06-19T03:07:16.434Z,46.95
2023-06-19T03:09:45.143Z,47.88
2023-06-19T03:12:15.232Z,48.58
2023-06-19T03:14:44.461Z,48.68
2023-06-19T03:17:15.555Z,48.80
2023-06-19T03:19:44.757Z,48.25
2023-06-19T03:22:14.749Z,48.06
2023-06-19T03:24:43.789Z,48.12
2023-06-19T03:27:21.741Z,47.91
2023-06-19T03:29:50.377Z,47.83
2023-06-19T03:32:25.799Z,47.22
2023-06-19T03:34:54.605Z,47.66
2023-06-19T03:37:23.247Z,48.16
2023-06-19T03:39:51.769Z,47.90
2023-06-19T03:42:23.753Z,48.27
2023-06-19T03:44:52.406Z,47.42
2023-06-19T03:47:21.001Z,47.33
2023-06-19T03:49:50.220Z,47.09
2023-06-19T03:52:19.204Z,47.14
2023-06-19T03:54:48.066Z,47.41
2023-06-19T03:57:17.577Z,46.37
2023-06-19T03:59:47.867Z,46.56
2023-06-19T04:02:16.699Z,47.00
2023-06-19T04:04:45.756Z,45.84
2023-06-19T04:07:15.239Z,46.51
2023-06-19T04:09:44.208Z,45.99
2023-06-19T04:12:13.995Z,45.94
2023-06-19T04:14:42.395Z,46.31
2023-06-19T04:17:12.094Z,47.66
2023-06-19T04:19:40.498Z,46.94
2023-06-19T04:22:09.907Z,46.25
2023-06-19T04:24:39.127Z,45.54
2023-06-19T04:27:10.037Z,46.07
2023-06-19T04:29:39.449Z,45.80
2023-06-19T04:32:13.534Z,45.30
2023-06-19T04:34:47.714Z,46.43
2023-06-19T04:37:20.776Z,46.37
2023-06-19T04:39:49.625Z,45.62
2023-06-19T04:42:22.408Z,45.06
2023-06-19T04:44:52.152Z,44.91
2023-06-19T04:47:24.432Z,44.95
2023-06-19T04:49:55.380Z,48.04
2023-06-19T04:52:25.479Z,46.31
2023-06-19T04:54:54.398Z,46.99
2023-06-19T04:57:23.532Z,45.58
2023-06-19T04:59:52.722Z,45.05
2023-06-19T05:02:21.959Z,45.81
2023-06-19T05:04:51.261Z,45.37
2023-06-19T05:07:19.929Z,45.40
2023-06-19T05:09:48.604Z,45.52
2023-06-19T05:12:17.611Z,45.04
2023-06-19T05:14:46.477Z,44.85
2023-06-19T05:17:15.659Z,44.64
2023-06-19T05:19:44.702Z,45.19
2023-06-19T05:22:13.352Z,45.28
2023-06-19T05:24:42.903Z,45.54
2023-06-19T05:27:12.902Z,46.86
2023-06-19T05:29:42.461Z,46.00
2023-06-19T05:32:11.226Z,45.91
2023-06-19T05:34:40.061Z,45.06
2023-06-19T05:37:08.571Z,45.40
2023-06-19T05:39:37.533Z,45.60
2023-06-19T05:42:06.444Z,45.60
2023-06-19T05:44:35.405Z,46.46
2023-06-19T05:47:07.700Z,45.37
2023-06-19T05:49:36.507Z,46.92
2023-06-19T05:52:06.126Z,46.88
2023-06-19T05:54:34.668Z,47.14
2023-06-19T05:57:03.921Z,47.18
2023-06-19T05:59:32.742Z,45.74
2023-06-19T06:02:02.019Z,44.99
2023-06-19T06:04:32.609Z,45.09
2023-06-19T06:07:01.953Z,44.89
2023-06-19T06:09:30.374Z,44.39
2023-06-19T06:11:59.051Z,44.56
2023-06-19T06:14:35.268Z,44.54
2023-06-19T06:17:07.895Z,44.63
2023-06-19T06:19:39.752Z,44.64
2023-06-19T06:22:11.192Z,44.16
2023-06-19T06:24:41.020Z,44.15
2023-06-19T06:27:17.396Z,43.86
2023-06-19T06:29:50.832Z,44.27
2023-06-19T06:32:29.305Z,43.80
2023-06-19T06:35:00.741Z,43.75
2023-06-19T06:37:35.175Z,43.86
2023-06-19T06:40:11.409Z,43.75
2023-06-19T06:42:43.085Z,43.93
2023-06-19T06:45:17.192Z,44.30
2023-06-19T06:47:49.635Z,45.26
2023-06-19T06:50:23.089Z,44.02
2023-06-19T06:52:52.848Z,43.87
2023-06-19T06:55:24.300Z,43.61
2023-06-19T06:57:53.164Z,43.70
2023-06-19T07:00:25.270Z,43.99
2023-06-19T07:02:56.109Z,44.01
2023-06-19T07:05:26.853Z,43.27
2023-06-19T07:07:58.720Z,45.56
2023-06-19T07:10:32.475Z,45.54
2023-06-19T07:13:00.974Z,44.20
2023-06-19T07:15:32.355Z,43.51
2023-06-19T07:18:01.047Z,43.69
2023-06-19T07:20:32.835Z,45.24
2023-06-19T07:23:04.803Z,43.99
2023-06-19T07:25:36.273Z,44.32
2023-06-19T07:28:06.904Z,43.85
2023-06-19T07:30:37.641Z,43.63
2023-06-19T07:33:08.909Z,44.18
2023-06-19T07:35:43.440Z,45.22
2023-06-19T07:38:16.960Z,45.58
2023-06-19T07:40:50.798Z,43.62
2023-06-19T07:43:26.081Z,43.09
2023-06-19T07:45:59.241Z,42.75
2023-06-19T07:48:28.987Z,42.95
2023-06-19T07:51:04.363Z,43.56
2023-06-19T07:53:48.076Z,43.73
2023-06-19T07:56:27.098Z,43.93
2023-06-19T07:58:59.589Z,42.84
2023-06-19T08:01:29.393Z,43.27
2023-06-19T08:04:05.842Z,42.82
2023-06-19T08:06:39.912Z,42.64
2023-06-19T08:09:12.454Z,43.20
2023-06-19T08:11:41.624Z,43.16
2023-06-19T08:14:19.361Z,42.77
2023-06-19T08:16:51.022Z,42.89
2023-06-19T08:19:28.458Z,42.94
2023-06-19T08:22:00.944Z,42.44
2023-06-19T08:24:33.652Z,42.92
2023-06-19T08:27:12.668Z,43.89
2023-06-19T08:29:48.613Z,44.09
2023-06-19T08:32:24.063Z,43.85
2023-06-19T08:35:03.435Z,44.13
2023-06-19T08:37:33.366Z,42.76
2023-06-19T08:40:12.769Z,42.21
2023-06-19T08:42:48.489Z,42.17
2023-06-19T08:45:23.473Z,42.37
2023-06-19T08:48:00.397Z,42.68
2023-06-19T08:50:29.869Z,42.32
2023-06-19T08:53:01.861Z,42.38
2023-06-19T08:55:33.542Z,43.36
2023-06-19T08:58:07.358Z,42.40
2023-06-19T09:00:37.462Z,42.46
2023-06-19T09:05:53.442Z,43.10
2023-06-19T09:09:12.243Z,42.57
2023-06-19T09:13:25.274Z,45.03
2023-06-19T09:25:16.726Z,43.22
2023-06-19T09:28:52.813Z,44.29
2023-06-19T09:31:49.152Z,43.16
2023-06-19T09:34:23.943Z,42.90
2023-06-19T09:36:57.708Z,44.26
2023-06-19T09:39:33.632Z,43.36
2023-06-19T09:42:11.700Z,43.61
2023-06-19T09:44:52.212Z,43.21
2023-06-19T09:47:40.197Z,42.70
2023-06-19T09:50:13.989Z,44.74
2023-06-19T09:53:04.431Z,43.58
2023-06-19T09:55:57.332Z,44.41
2023-06-19T09:59:08.818Z,43.12
2023-06-19T10:02:48.773Z,43.27
2023-06-19T10:14:03.604Z,44.91
2023-06-19T10:16:53.294Z,44.65
2023-06-19T10:24:47.744Z,44.65
2023-06-19T10:28:40.276Z,45.27
2023-06-19T10:45:53.261Z,44.61
2023-06-19T10:48:37.476Z,43.12
2023-06-19T11:00:08.160Z,42.72
2023-06-19T11:08:03.929Z,43.67
2023-06-19T11:10:39.686Z,44.68
2023-06-19T11:13:37.771Z,43.41
2023-06-19T11:22:09.391Z,44.58
2023-06-19T11:29:38.731Z,44.13
2023-06-19T11:32:14.352Z,44.67
2023-06-19T11:34:44.831Z,44.84
2023-06-19T11:37:19.784Z,44.83
2023-06-19T11:39:52.574Z,44.68
2023-06-19T11:42:21.460Z,45.42
2023-06-19T11:45:11.474Z,44.98
2023-06-19T11:47:44.621Z,44.82
2023-06-19T11:50:15.089Z,44.59
2023-06-19T11:52:48.670Z,44.95
2023-06-19T11:55:20.703Z,45.36
2023-06-19T11:57:49.193Z,45.22
2023-06-19T12:00:22.013Z,46.15
2023-06-19T12:02:50.906Z,45.64
2023-06-19T12:05:19.628Z,46.04
2023-06-19T12:07:48.527Z,46.38
2023-06-19T12:10:16.929Z,46.03
2023-06-19T12:12:45.485Z,46.00
2023-06-19T12:15:14.233Z,46.57
2023-06-19T12:17:43.331Z,46.44
2023-06-19T12:20:15.450Z,47.00
2023-06-19T12:22:44.754Z,47.30
2023-06-19T12:25:14.466Z,46.75
2023-06-19T12:27:43.351Z,47.67
2023-06-19T12:30:12.568Z,47.82
2023-06-19T12:32:40.962Z,48.44
2023-06-19T12:35:10.249Z,48.24
2023-06-19T12:37:39.023Z,48.69
2023-06-19T12:40:12.671Z,48.86
2023-06-19T12:42:41.283Z,48.86
2023-06-19T12:45:10.602Z,50.52
2023-06-19T12:47:39.153Z,50.00
2023-06-19T12:50:08.507Z,51.13
2023-06-19T12:52:37.179Z,50.11
2023-06-19T12:55:06.300Z,50.94
2023-06-19T12:57:35.321Z,49.88
2023-06-19T13:00:07.297Z,49.03
2023-06-19T13:02:36.179Z,49.03
2023-06-19T13:05:04.709Z,49.77
2023-06-19T13:07:33.592Z,49.08
2023-06-19T13:10:02.393Z,50.07
2023-06-19T13:12:31.109Z,49.47
2023-06-19T13:15:00.182Z,49.52
2023-06-19T13:17:29.022Z,50.45
2023-06-19T13:19:58.185Z,50.76
2023-06-19T13:22:27.190Z,51.33
2023-06-19T13:24:55.708Z,51.19
2023-06-19T13:27:24.918Z,50.67
2023-06-19T13:29:53.625Z,50.98
2023-06-19T13:32:22.456Z,50.74
2023-06-19T13:34:50.819Z,50.26
2023-06-19T13:37:19.141Z,51.22
2023-06-19T13:39:48.484Z,51.29
2023-06-19T13:42:17.042Z,50.95
2023-06-19T13:44:47.286Z,51.24
2023-06-19T13:47:18.006Z,51.16
2023-06-19T13:49:47.189Z,51.40
2023-06-19T13:52:16.444Z,51.00
2023-06-19T13:54:45.033Z,51.08
2023-06-19T13:57:14.274Z,51.20
2023-06-19T13:59:44.414Z,51.31
2023-06-19T14:02:14.761Z,51.11
2023-06-19T14:04:43.207Z,51.03
2023-06-19T14:07:12.243Z,51.29
2023-06-19T14:09:41.056Z,51.83
2023-06-19T14:12:10.657Z,51.75
2023-06-19T14:14:39.880Z,51.89
2023-06-19T14:17:08.959Z,51.94
2023-06-19T14:19:38.325Z,52.16
2023-06-19T14:22:06.975Z,52.28
2023-06-19T14:24:35.536Z,52.28
2023-06-19T14:27:04.586Z,53.23
2023-06-19T14:29:33.082Z,52.80
2023-06-19T14:32:02.945Z,52.96
2023-06-19T14:34:31.660Z,54.85
2023-06-19T14:37:00.204Z,53.22
2023-06-19T14:39:28.581Z,52.88
2023-06-19T14:41:57.356Z,53.27
2023-06-19T14:44:26.001Z,54.11
2023-06-19T14:46:54.711Z,55.57
2023-06-19T14:49:23.577Z,55.67
2023-06-19T14:51:52.272Z,53.32
2023-06-19T14:54:20.928Z,52.90
2023-06-19T14:56:50.747Z,53.54
2023-06-19T14:59:20.061Z,52.82
2023-06-19T15:01:49.953Z,52.68
2023-06-19T15:04:18.905Z,54.40
2023-06-19T15:06:48.341Z,53.83
2023-06-19T15:09:50.481Z,55.80
2023-06-19T15:12:19.349Z,54.99
2023-06-19T15:18:40.921Z,54.90
2023-06-19T15:21:10.013Z,54.37
2023-06-19T15:23:38.410Z,54.03
2023-06-19T15:26:08.001Z,53.65
2023-06-19T15:28:37.433Z,53.93
2023-06-19T15:31:07.005Z,53.92
2023-06-19T15:33:35.475Z,53.98
2023-06-19T15:36:04.133Z,53.90
2023-06-19T15:38:42.668Z,54.60
2023-06-19T15:41:11.783Z,56.22
2023-06-19T15:43:40.962Z,55.75
2023-06-19T15:46:10.182Z,54.56
2023-06-19T15:48:38.681Z,55.09
2023-06-19T15:51:07.168Z,54.68
2023-06-19T15:53:35.598Z,55.29
2023-06-19T15:56:04.885Z,54.85
2023-06-19T15:58:34.392Z,54.73
2023-06-19T16:01:03.407Z,56.07
2023-06-19T16:03:33.612Z,56.20
2023-06-19T16:06:10.382Z,56.42
2023-06-19T16:08:46.381Z,57.60
2023-06-19T16:11:15.157Z,56.55
2023-06-19T16:13:43.711Z,55.31
2023-06-19T16:16:12.632Z,55.61
2023-06-19T16:18:40.903Z,55.76
2023-06-19T16:21:09.453Z,55.88
2023-06-19T16:23:38.552Z,56.08
2023-06-19T16:26:07.782Z,56.28
2023-06-19T16:28:36.578Z,57.49
2023-06-19T16:31:05.170Z,56.60
2023-06-19T16:33:33.765Z,56.32
2023-06-19T16:36:02.380Z,56.51
2023-06-19T16:38:30.815Z,57.21
2023-06-19T16:40:59.476Z,56.80
2023-06-19T16:43:28.138Z,55.44
2023-06-19T16:45:57.087Z,55.48
2023-06-19T16:48:25.551Z,56.00
2023-06-19T16:50:54.371Z,55.13
2023-06-19T16:53:23.506Z,57.13
2023-06-19T16:55:52.324Z,57.12
2023-06-19T16:58:20.686Z,57.51
2023-06-19T17:00:49.577Z,57.68
2023-06-19T17:03:23.411Z,57.31
2023-06-19T17:05:52.048Z,57.47
2023-06-19T17:08:20.829Z,56.65
2023-06-19T17:10:49.469Z,56.13
2023-06-19T17:13:18.307Z,56.34
2023-06-19T17:15:47.049Z,56.65
2023-06-19T17:18:15.730Z,55.70
2023-06-19T17:20:44.734Z,55.65
2023-06-19T17:23:13.117Z,55.77
2023-06-19T17:25:42.224Z,56.55
2023-06-19T17:28:10.754Z,55.99
2023-06-19T17:30:41.844Z,56.20
2023-06-19T17:33:12.432Z,55.94
2023-06-19T17:35:41.558Z,56.43
2023-06-19T17:38:17.427Z,57.06
2023-06-19T17:40:46.778Z,56.62
2023-06-19T17:43:15.585Z,56.13
2023-06-19T17:45:44.813Z,56.09
2023-06-19T17:48:14.193Z,56.80
2023-06-19T17:50:43.304Z,56.66
2023-06-19T17:53:15.111Z,57.52
2023-06-19T17:55:47.661Z,57.61
2023-06-19T17:58:21.784Z,56.71
2023-06-19T18:00:56.480Z,56.16
2023-06-19T18:03:26.771Z,56.15
2023-06-19T18:06:03.920Z,55.92
2023-06-19T18:08:39.477Z,56.95
2023-06-19T18:11:19.148Z,56.43
2023-06-19T18:13:55.648Z,57.24
2023-06-19T18:16:43.482Z,57.72
2023-06-19T18:19:22.116Z,57.38
2023-06-19T18:22:00.107Z,57.12
2023-06-19T18:24:33.251Z,56.81
2023-06-19T18:27:12.690Z,59.79
2023-06-19T18:29:46.825Z,58.62
2023-06-19T18:32:16.310Z,58.44
2023-06-19T18:34:53.937Z,58.11
2023-06-19T18:38:16.247Z,58.14
2023-06-19T18:40:46.278Z,56.50
2023-06-19T18:43:16.550Z,56.87
2023-06-19T18:45:54.308Z,57.77
2023-06-19T18:48:26.736Z,57.08
2023-06-19T18:50:59.237Z,56.68
2023-06-19T18:53:39.413Z,60.24
2023-06-19T18:59:15.940Z,58.31
2023-06-19T19:05:47.860Z,58.46
2023-06-19T19:08:38.986Z,58.67
2023-06-19T19:11:08.921Z,58.34
2023-06-19T19:13:43.144Z,58.50
2023-06-19T19:16:12.107Z,57.90
2023-06-19T19:19:46.995Z,56.90
2023-06-19T19:22:23.529Z,56.79
2023-06-19T19:24:57.677Z,56.18
2023-06-19T19:28:04.483Z,56.46
2023-06-19T19:30:32.882Z,56.62
2023-06-19T19:33:02.892Z,56.42
2023-06-19T19:35:36.051Z,57.53
2023-06-19T19:38:07.483Z,56.16
2023-06-19T19:40:49.356Z,56.12
2023-06-19T19:43:18.674Z,56.82
2023-06-19T19:45:47.475Z,58.30
2023-06-19T19:48:16.553Z,58.49
2023-06-19T19:50:46.070Z,57.34
2023-06-19T19:53:31.516Z,57.34
2023-06-19T19:56:08.325Z,56.65
2023-06-19T19:58:43.690Z,57.30
2023-06-19T20:01:14.460Z,58.75
2023-06-19T20:03:44.150Z,57.37
2023-06-19T20:06:13.182Z,57.98
2023-06-19T20:08:45.741Z,57.96
2023-06-19T20:11:14.523Z,56.93
2023-06-19T20:13:43.193Z,56.05
2023-06-19T20:16:12.084Z,56.46
2023-06-19T20:18:40.658Z,55.99
2023-06-19T20:21:12.739Z,56.49
2023-06-19T20:24:12.745Z,55.91
2023-06-19T20:26:59.759Z,56.89
2023-06-19T20:29:41.480Z,57.64
2023-06-19T20:32:16.108Z,57.74
2023-06-19T20:34:45.038Z,57.29
2023-06-19T20:37:13.822Z,58.09
2023-06-19T20:39:42.980Z,57.51
2023-06-19T20:42:11.900Z,56.70
2023-06-19T20:44:41.088Z,56.05
2023-06-19T20:47:09.708Z,56.28
2023-06-19T20:49:38.205Z,55.85
2023-06-19T20:52:06.881Z,56.80
2023-06-19T20:54:35.408Z,57.07
2023-06-19T20:57:03.979Z,56.92
2023-06-19T20:59:32.371Z,56.38
2023-06-19T21:02:04.518Z,56.81
2023-06-19T21:04:33.426Z,56.82
2023-06-19T21:07:02.458Z,56.31
2023-06-19T21:09:31.126Z,56.04
2023-06-19T21:11:59.621Z,55.89
2023-06-19T21:14:28.352Z,55.77
2023-06-19T21:16:58.647Z,55.69
2023-06-19T21:19:27.385Z,56.00
2023-06-19T21:21:56.222Z,55.73
2023-06-19T21:24:24.977Z,55.54
2023-06-19T21:26:53.361Z,55.17
2023-06-19T21:29:22.959Z,55.26
2023-06-19T21:31:51.622Z,55.13
2023-06-19T21:34:20.145Z,55.08
2023-06-19T21:36:48.740Z,55.02
2023-06-19T21:39:17.302Z,55.39
2023-06-19T21:41:46.304Z,55.20
2023-06-19T21:44:14.822Z,55.40
2023-06-19T21:46:43.346Z,55.35
2023-06-19T21:49:12.202Z,55.23
2023-06-19T21:51:42.828Z,55.10
2023-06-19T21:54:11.701Z,54.99
2023-06-19T21:56:40.150Z,55.81
2023-06-19T21:59:08.589Z,54.95
2023-06-19T22:01:37.897Z,55.92
2023-06-19T22:04:08.453Z,55.35
2023-06-19T22:06:37.196Z,55.98
2023-06-19T22:09:05.553Z,55.25
2023-06-19T22:11:34.274Z,56.28
2023-06-19T22:14:03.009Z,56.07
2023-06-19T22:16:35.783Z,55.58
2023-06-19T22:19:04.700Z,56.35
2023-06-19T22:21:35.566Z,56.53
2023-06-19T22:24:04.951Z,56.46
2023-06-19T22:26:39.067Z,56.25
2023-06-19T22:29:08.088Z,58.52
2023-06-19T22:31:38.063Z,55.52
2023-06-19T22:34:06.721Z,55.90
2023-06-19T22:36:35.275Z,54.33
2023-06-19T22:39:03.982Z,55.52
2023-06-19T22:41:37.870Z,55.69
2023-06-19T22:44:08.855Z,55.58
2023-06-19T22:46:37.447Z,55.87
2023-06-19T22:49:05.921Z,54.92
2023-06-19T22:51:36.895Z,55.52
2023-06-19T22:54:06.850Z,55.55
2023-06-19T22:56:39.198Z,54.73
2023-06-19T22:59:08.501Z,54.61
2023-06-19T23:01:39.364Z,54.55
2023-06-19T23:04:11.153Z,54.55
2023-06-19T23:06:52.526Z,55.46
2023-06-19T23:09:24.776Z,55.62
2023-06-19T23:11:55.980Z,55.01
2023-06-19T23:14:27.699Z,54.67
2023-06-19T23:16:57.863Z,54.40
2023-06-19T23:19:26.753Z,54.45
2023-06-19T23:21:59.958Z,54.37
2023-06-19T23:24:30.786Z,54.82
2023-06-19T23:26:59.954Z,55.02
2023-06-19T23:29:28.972Z,55.62
2023-06-19T23:31:57.897Z,54.90
2023-06-19T23:34:29.161Z,55.43
2023-06-19T23:37:04.362Z,55.66
2023-06-19T23:39:33.317Z,56.32
2023-06-19T23:42:04.613Z,56.40
2023-06-19T23:44:34.320Z,55.39
2023-06-19T23:47:05.584Z,55.11
2023-06-19T23:49:37.015Z,55.26
2023-06-19T23:52:07.266Z,54.35
2023-06-19T23:54:36.060Z,55.68
2023-06-19T23:57:06.237Z,56.50
2023-06-19T23:59:37.030Z,56.79
